createdAt,value
2022-11-09T00:03:05.603Z,97710.00
2022-11-09T00:08:12.565Z,97709.00
2022-11-09T00:13:15.484Z,97710.00
2022-11-09T00:18:18.291Z,97714.00
2022-11-09T00:23:21.542Z,97725.00
2022-11-09T00:28:24.630Z,97719.00
2022-11-09T00:33:27.480Z,97712.00
2022-11-09T00:38:30.220Z,97706.00
2022-11-09T00:43:33.557Z,97710.00
2022-11-09T00:48:36.741Z,97709.00
2022-11-09T00:53:40.671Z,97708.00
2022-11-09T00:58:43.423Z,97706.00
2022-11-09T01:03:46.790Z,97718.00
2022-11-09T01:08:50.568Z,97709.00
2022-11-09T01:13:53.841Z,97713.00
2022-11-09T01:19:00.642Z,97714.00
2022-11-09T01:24:03.852Z,97712.00
2022-11-09T01:29:06.578Z,97708.00
2022-11-09T01:34:09.521Z,97709.00
2022-11-09T01:39:12.323Z,97705.00
2022-11-09T01:44:17.844Z,97699.00
2022-11-09T01:49:52.887Z,97696.00
2022-11-09T01:55:18.720Z,97691.00
2022-11-09T02:00:21.643Z,97684.00
2022-11-09T02:05:31.049Z,97677.00
2022-11-09T02:11:02.277Z,97672.00
2022-11-09T02:16:08.452Z,97670.00
2022-11-09T02:21:11.260Z,97666.00
2022-11-09T02:26:35.944Z,97668.00
2022-11-09T02:31:44.901Z,97673.00
2022-11-09T02:36:49.219Z,97665.00
2022-11-09T02:42:18.363Z,97662.00
2022-11-09T02:47:24.384Z,97664.00
2022-11-09T02:52:27.214Z,97651.00
2022-11-09T02:57:29.990Z,97643.00
2022-11-09T03:02:34.136Z,97632.00
2022-11-09T03:07:38.034Z,97633.00
2022-11-09T03:12:40.859Z,97635.00
2022-11-09T03:17:49.436Z,97650.00
2022-11-09T03:22:59.306Z,97653.00
2022-11-09T03:28:06.144Z,97670.00
2022-11-09T03:33:12.784Z,97673.00
2022-11-09T03:38:17.077Z,97668.00
2022-11-09T03:43:20.626Z,97677.00
2022-11-09T03:48:23.757Z,97677.00
2022-11-09T03:53:26.515Z,97683.00
2022-11-09T03:58:29.313Z,97681.00
2022-11-09T04:03:32.134Z,97678.00
2022-11-09T04:08:34.874Z,97676.00
2022-11-09T04:13:37.559Z,97679.00
2022-11-09T04:18:40.248Z,97686.00
2022-11-09T04:23:43.059Z,97678.00
2022-11-09T04:28:45.759Z,97674.00
2022-11-09T04:33:51.811Z,97674.00
2022-11-09T04:38:54.493Z,97672.00
2022-11-09T04:43:57.100Z,97676.00
2022-11-09T04:48:59.899Z,97686.00
2022-11-09T04:54:02.705Z,97693.00
2022-11-09T04:59:06.694Z,97684.00
2022-11-09T05:04:10.285Z,97683.00
2022-11-09T05:09:13.055Z,97683.00
2022-11-09T05:14:15.813Z,97690.00
2022-11-09T05:19:18.610Z,97695.00
2022-11-09T05:24:21.412Z,97699.00
2022-11-09T05:29:24.225Z,97689.00
2022-11-09T05:34:26.914Z,97685.00
2022-11-09T05:39:29.617Z,97694.00
2022-11-09T05:44:32.523Z,97704.00
2022-11-09T05:49:35.313Z,97710.00
2022-11-09T05:54:38.090Z,97712.00
2022-11-09T05:59:40.820Z,97706.00
2022-11-09T06:04:43.573Z,97711.00
2022-11-09T06:09:46.343Z,97710.00
2022-11-09T06:14:49.068Z,97709.00
2022-11-09T06:19:51.828Z,97714.00
2022-11-09T06:24:54.570Z,97701.00
2022-11-09T09:30:20.429Z,97758.00
2022-11-09T09:35:41.610Z,97745.00
2022-11-09T09:41:17.951Z,97777.00
2022-11-09T09:46:27.573Z,97787.00
2022-11-09T09:51:33.036Z,97780.00
2022-11-09T09:56:40.519Z,97784.00
2022-11-09T10:01:47.804Z,97765.00
2022-11-09T10:07:02.559Z,97770.00
2022-11-09T10:12:22.790Z,97756.00
2022-11-09T10:18:03.956Z,97758.00
2022-11-09T10:23:31.659Z,97768.00
2022-11-09T10:29:14.624Z,97738.00
2022-11-09T10:34:30.042Z,97741.00
2022-11-09T10:39:47.152Z,97718.00
2022-11-09T10:45:30.208Z,97714.00
2022-11-09T10:50:53.014Z,97717.00
2022-11-09T10:56:21.790Z,97719.00
2022-11-09T11:01:43.808Z,97690.00
2022-11-09T11:07:20.560Z,97676.00
2022-11-09T11:12:43.853Z,97679.00
2022-11-09T11:18:24.794Z,97671.00
2022-11-09T11:24:02.910Z,97687.00
2022-11-09T11:29:55.184Z,97683.00
2022-11-09T11:35:23.288Z,97673.00
2022-11-09T11:40:50.247Z,97683.00
2022-11-09T11:46:34.501Z,97673.00
2022-11-09T11:52:07.483Z,97645.00
2022-11-09T11:57:37.753Z,97650.00
2022-11-09T12:03:21.043Z,97663.00
2022-11-09T12:09:01.169Z,97667.00
2022-11-09T12:14:57.370Z,97665.00
2022-11-09T12:20:29.026Z,97686.00
2022-11-09T12:26:23.836Z,97692.00
2022-11-09T12:32:00.259Z,97697.00
2022-11-09T12:37:28.273Z,97700.00
2022-11-09T12:43:24.236Z,97704.00
2022-11-09T12:48:47.016Z,97710.00
2022-11-09T12:54:11.882Z,97703.00
2022-11-09T12:59:50.144Z,97712.00
2022-11-09T13:05:31.953Z,97694.00
2022-11-09T13:11:18.178Z,97702.00
2022-11-09T13:16:39.639Z,97711.00
2022-11-09T13:22:16.149Z,97707.00
2022-11-09T13:27:44.952Z,97710.00
2022-11-09T13:33:11.794Z,97699.00
2022-11-09T13:38:34.336Z,97712.00
2022-11-09T13:44:16.748Z,97706.00
2022-11-09T13:49:44.921Z,97714.00
2022-11-09T13:55:23.533Z,97722.00
2022-11-09T14:00:48.059Z,97724.00
2022-11-09T14:06:13.492Z,97734.00
2022-11-09T14:11:49.788Z,97734.00
2022-11-09T14:17:26.344Z,97735.00
2022-11-09T14:22:47.576Z,97749.00
2022-11-09T14:28:28.985Z,97750.00
2022-11-09T14:34:03.341Z,97755.00
2022-11-09T14:39:28.477Z,97765.00
2022-11-09T14:44:49.968Z,97771.00
2022-11-09T14:50:23.886Z,97769.00
2022-11-09T14:55:46.571Z,97774.00
2022-11-09T15:01:24.140Z,97768.00
2022-11-09T15:06:51.975Z,97774.00
2022-11-09T15:12:18.340Z,97779.00
2022-11-09T15:17:46.404Z,97796.00
2022-11-09T15:23:37.379Z,97795.00
2022-11-09T15:28:58.844Z,97816.00
2022-11-09T15:34:24.708Z,97819.00
2022-11-09T15:39:46.055Z,97827.00
2022-11-09T15:45:07.814Z,97826.00
2022-11-09T15:50:29.472Z,97821.00
2022-11-09T15:55:51.413Z,97821.00
2022-11-09T16:01:12.943Z,97819.00
2022-11-09T16:06:33.985Z,97835.00
2022-11-09T16:11:55.390Z,97838.00
2022-11-09T16:17:16.845Z,97828.00
2022-11-09T16:22:38.337Z,97822.00
2022-11-09T16:28:00.552Z,97826.00
2022-11-09T16:33:21.964Z,97827.00
2022-11-09T16:38:46.149Z,97830.00
2022-11-09T16:44:07.604Z,97829.00
2022-11-09T16:49:28.787Z,97844.00
2022-11-09T16:54:50.243Z,97847.00
2022-11-09T17:00:13.108Z,97852.00
2022-11-09T17:05:34.416Z,97849.00
2022-11-09T17:10:55.498Z,97850.00
2022-11-09T17:16:20.391Z,97855.00
2022-11-09T17:21:41.568Z,97864.00
2022-11-09T17:27:02.729Z,97874.00
2022-11-09T17:32:27.484Z,97876.00
2022-11-09T17:37:48.932Z,97882.00
2022-11-09T17:43:10.200Z,97888.00
2022-11-09T17:48:32.871Z,97876.00
2022-11-09T17:53:54.329Z,97882.00
2022-11-09T17:59:15.691Z,97878.00
2022-11-09T18:04:38.143Z,97881.00
2022-11-09T18:09:59.422Z,97899.00
2022-11-09T18:15:24.360Z,97897.00
2022-11-09T18:20:45.833Z,97910.00
2022-11-09T18:26:08.935Z,97912.00
2022-11-09T18:31:30.261Z,97923.00
2022-11-09T18:36:51.432Z,97919.00
2022-11-09T18:42:12.633Z,97920.00
2022-11-09T18:47:33.885Z,97921.00
2022-11-09T18:52:55.207Z,97930.00
2022-11-09T18:58:17.993Z,97930.00
2022-11-09T19:03:39.226Z,97929.00
2022-11-09T19:09:19.150Z,97935.00
2022-11-09T19:14:44.196Z,97946.00
2022-11-09T19:20:05.868Z,97951.00
2022-11-09T19:25:27.025Z,97947.00
2022-11-09T19:30:48.374Z,97943.00
2022-11-09T19:41:51.814Z,97957.00
2022-11-09T19:47:13.074Z,97965.00
2022-11-09T19:52:34.087Z,97967.00
2022-11-09T19:57:55.428Z,97970.00
2022-11-09T20:03:16.876Z,97976.00
2022-11-09T20:08:38.520Z,97978.00
2022-11-09T20:13:59.715Z,97980.00
2022-11-09T20:19:21.818Z,97979.00
2022-11-09T20:24:43.151Z,97981.00
2022-11-09T20:30:05.380Z,97988.00
2022-11-09T20:35:26.803Z,97994.00
2022-11-09T20:40:58.851Z,98000.00
2022-11-09T20:46:22.555Z,98009.00
2022-11-09T20:51:43.837Z,98012.00
